Time;durP1;ratioP1;P1;durP2;ratioP2;P2;SDS_P1;SDS_P2;PMS_P1;PMS_P2;Temp;Humidity;BMP_temperature;BMP_pressure;BME280_temperature;BME280_humidity;BME280_pressure;Samples;Min_cycle;Max_cycle;Signal;HPM_P1;HPM_P2
2021/12/02 00:01:52;;;;;;;1.10;0.60;;;;;;;;;;5036965;28;20963;-79
2021/12/02 00:04:18;;;;;;;4.93;0.60;;;;;;;;;;5038396;28;20405;-80
2021/12/02 00:06:44;;;;;;;1.50;0.70;;;;;;;;;;5042263;28;20404;-80
2021/12/02 00:09:11;;;;;;;2.00;0.47;;;;;;;;;;5039416;28;20486;-80
2021/12/02 00:11:37;;;;;;;1.27;0.57;;;;;;;;;;5039355;28;20440;-80
2021/12/02 00:14:09;;;;;;;1.00;0.60;;;;;;;;;;5034482;28;20401;-80
2021/12/02 00:16:51;;;;;;;1.00;0.50;;;;;;;;;;5036901;28;20607;-80
2021/12/02 00:22:03;;;;;;;7.20;0.60;;;;;;;;;;5040064;28;20448;-80
2021/12/02 00:24:36;;;;;;;19.90;0.73;;;;;;;;;;5038653;28;20416;-80
2021/12/02 00:27:05;;;;;;;1.00;0.50;;;;;;;;;;5042517;28;20952;-80
2021/12/02 00:29:32;;;;;;;3.83;0.50;;;;;;;;;;5035989;28;20785;-80
2021/12/02 00:32:01;;;;;;;1.00;0.50;;;;;;;;;;5037322;28;20439;-81
2021/12/02 00:34:28;;;;;;;0.90;0.50;;;;;;;;;;5039872;28;20405;-80
2021/12/02 00:36:55;;;;;;;0.90;0.50;;;;;;;;;;5033619;28;20558;-79
2021/12/02 00:39:21;;;;;;;1.70;0.60;;;;;;;;;;5033472;28;20444;-79
2021/12/02 00:41:47;;;;;;;1.30;0.50;;;;;;;;;;5032562;28;20433;-79
2021/12/02 00:44:14;;;;;;;0.90;0.50;;;;;;;;;;5034768;28;20815;-79
2021/12/02 00:46:41;;;;;;;0.93;0.57;;;;;;;;;;5033543;28;20435;-79
2021/12/02 00:49:11;;;;;;;0.90;0.50;;;;;;;;;;5033073;28;20464;-79
2021/12/02 00:51:37;;;;;;;1.70;0.60;;;;;;;;;;5034987;28;20435;-79
2021/12/02 00:54:05;;;;;;;0.90;0.50;;;;;;;;;;5033491;28;20956;-80
2021/12/02 00:56:32;;;;;;;0.90;0.50;;;;;;;;;;5033381;28;20827;-79
2021/12/02 00:58:59;;;;;;;1.03;0.47;;;;;;;;;;5034064;28;20412;-79
2021/12/02 01:01:26;;;;;;;0.90;0.50;;;;;;;;;;5034524;28;20424;-79
2021/12/02 01:03:56;;;;;;;0.90;0.50;;;;;;;;;;5032744;28;20424;-80
2021/12/02 01:06:23;;;;;;;0.90;0.50;;;;;;;;;;5034090;28;20895;-79
2021/12/02 01:08:49;;;;;;;0.90;0.40;;;;;;;;;;5033477;28;20458;-80
2021/12/02 01:11:17;;;;;;;0.90;0.40;;;;;;;;;;5035938;28;20440;-80
2021/12/02 01:13:43;;;;;;;0.90;0.40;;;;;;;;;;5036715;28;20401;-79
2021/12/02 01:16:09;;;;;;;0.90;0.40;;;;;;;;;;5032053;28;20811;-79
2021/12/02 01:18:35;;;;;;;1.10;0.50;;;;;;;;;;5031971;28;20408;-79
2021/12/02 01:21:02;;;;;;;0.90;0.50;;;;;;;;;;5030076;28;20590;-79
2021/12/02 01:23:29;;;;;;;0.90;0.50;;;;;;;;;;5030627;28;20420;-79
2021/12/02 01:25:58;;;;;;;0.90;0.50;;;;;;;;;;5032321;28;20907;-79
2021/12/02 01:28:25;;;;;;;0.90;0.40;;;;;;;;;;5031782;28;20505;-79
2021/12/02 01:30:54;;;;;;;1.37;0.50;;;;;;;;;;5030167;28;20436;-79
2021/12/02 01:33:21;;;;;;;0.90;0.40;;;;;;;;;;5032020;28;20401;-79
2021/12/02 01:35:51;;;;;;;0.90;0.50;;;;;;;;;;5030823;28;20413;-79
2021/12/02 01:38:17;;;;;;;1.00;0.50;;;;;;;;;;5032350;28;20404;-79
2021/12/02 01:40:45;;;;;;;0.90;0.50;;;;;;;;;;5030663;28;20443;-79
2021/12/02 01:43:15;;;;;;;1.00;0.50;;;;;;;;;;5030669;28;20416;-79
2021/12/02 01:45:41;;;;;;;0.90;0.50;;;;;;;;;;5032131;28;20424;-79
2021/12/02 01:48:10;;;;;;;1.00;0.50;;;;;;;;;;5032466;28;20456;-80
2021/12/02 01:50:39;;;;;;;1.00;0.50;;;;;;;;;;5035096;28;20527;-80
2021/12/02 01:53:05;;;;;;;0.97;0.47;;;;;;;;;;5040677;28;20416;-80
2021/12/02 01:55:32;;;;;;;0.90;0.50;;;;;;;;;;5043176;28;20462;-80
2021/12/02 01:57:59;;;;;;;1.00;0.50;;;;;;;;;;5042511;28;20412;-80
2021/12/02 02:00:44;;;;;;;1.40;0.50;;;;;;;;;;5041881;28;20424;-80
2021/12/02 02:03:14;;;;;;;0.90;0.40;;;;;;;;;;5047946;28;20412;-79
2021/12/02 02:05:41;;;;;;;0.90;0.50;;;;;;;;;;5051307;28;20400;-80
2021/12/02 02:08:14;;;;;;;1.73;0.60;;;;;;;;;;5050116;28;20476;-80
2021/12/02 02:10:41;;;;;;;1.00;0.50;;;;;;;;;;5051018;28;20434;-78
2021/12/02 02:13:09;;;;;;;0.93;0.50;;;;;;;;;;5050644;28;20412;-79
2021/12/02 02:15:35;;;;;;;0.90;0.50;;;;;;;;;;5048754;28;20413;-79
2021/12/02 02:18:20;;;;;;;0.90;0.50;;;;;;;;;;5055041;28;20388;-79
2021/12/02 02:20:59;;;;;;;0.93;0.50;;;;;;;;;;5062476;28;20487;-79
2021/12/02 02:23:28;;;;;;;0.90;0.50;;;;;;;;;;5061813;28;20427;-79
2021/12/02 02:25:54;;;;;;;3.43;0.70;;;;;;;;;;5052835;28;20439;-79
2021/12/02 02:28:20;;;;;;;1.00;0.50;;;;;;;;;;5049565;28;20447;-79
2021/12/02 02:30:47;;;;;;;1.10;0.60;;;;;;;;;;5048696;28;20428;-80
2021/12/02 02:33:13;;;;;;;1.20;0.60;;;;;;;;;;5045674;28;20934;-80
2021/12/02 02:35:41;;;;;;;0.90;0.40;;;;;;;;;;5046197;28;20942;-80
2021/12/02 02:38:07;;;;;;;0.90;0.50;;;;;;;;;;5047069;28;20835;-80
2021/12/02 02:40:33;;;;;;;0.90;0.50;;;;;;;;;;5049062;28;20428;-80
2021/12/02 02:43:07;;;;;;;0.90;0.50;;;;;;;;;;5043268;28;20408;-80
2021/12/02 02:45:33;;;;;;;5.47;0.63;;;;;;;;;;5045812;28;20427;-80
2021/12/02 02:47:59;;;;;;;0.90;0.50;;;;;;;;;;5044721;28;20436;-80
2021/12/02 02:50:25;;;;;;;0.90;0.50;;;;;;;;;;5050741;28;20927;-80
2021/12/02 02:52:59;;;;;;;1.00;0.50;;;;;;;;;;5053638;28;20400;-80
2021/12/02 02:55:25;;;;;;;0.90;0.50;;;;;;;;;;5053632;28;20404;-80
2021/12/02 02:58:04;;;;;;;1.00;0.50;;;;;;;;;;5052452;28;20409;-80
2021/12/02 03:00:34;;;;;;;1.67;0.70;;;;;;;;;;5052049;28;20416;-80
2021/12/02 03:03:19;;;;;;;0.90;0.50;;;;;;;;;;5048999;28;20393;-79
2021/12/02 03:06:04;;;;;;;2.23;0.50;;;;;;;;;;5045688;28;20788;-80
2021/12/02 03:08:43;;;;;;;1.40;0.60;;;;;;;;;;5042449;28;20455;-79
2021/12/02 03:11:12;;;;;;;0.90;0.40;;;;;;;;;;5041210;28;20451;-79
2021/12/02 03:13:47;;;;;;;0.90;0.47;;;;;;;;;;5046419;28;20423;-80
2021/12/02 03:18:58;;;;;;;1.00;0.50;;;;;;;;;;5053441;28;20863;-80
2021/12/02 03:21:25;;;;;;;0.90;0.50;;;;;;;;;;5051138;28;20436;-80
2021/12/02 03:23:51;;;;;;;7.03;0.50;;;;;;;;;;5044698;28;20969;-80
2021/12/02 03:26:18;;;;;;;1.00;0.50;;;;;;;;;;5036961;28;20495;-80
2021/12/02 03:28:44;;;;;;;0.90;0.40;;;;;;;;;;5035692;28;20452;-80
2021/12/02 03:31:10;;;;;;;4.97;0.50;;;;;;;;;;5036755;28;20425;-80
2021/12/02 03:33:36;;;;;;;0.90;0.40;;;;;;;;;;5037458;28;20799;-79
2021/12/02 03:36:02;;;;;;;0.90;0.50;;;;;;;;;;5036326;28;20424;-80
2021/12/02 03:38:28;;;;;;;0.90;0.50;;;;;;;;;;5036364;28;20405;-80
2021/12/02 03:40:54;;;;;;;0.90;0.40;;;;;;;;;;5035832;28;20432;-80
2021/12/02 03:43:21;;;;;;;0.90;0.50;;;;;;;;;;5036511;28;20417;-80
2021/12/02 03:45:47;;;;;;;1.23;0.60;;;;;;;;;;5037810;28;20482;-80
2021/12/02 03:48:14;;;;;;;0.90;0.40;;;;;;;;;;5037273;28;20456;-80
2021/12/02 03:50:40;;;;;;;0.90;0.50;;;;;;;;;;5036768;28;20428;-80
2021/12/02 03:53:06;;;;;;;0.90;0.50;;;;;;;;;;5035697;28;20404;-80
2021/12/02 03:55:32;;;;;;;1.00;0.60;;;;;;;;;;5036407;28;20396;-80
2021/12/02 03:57:58;;;;;;;0.90;0.40;;;;;;;;;;5034750;28;20417;-80
2021/12/02 04:00:24;;;;;;;0.90;0.50;;;;;;;;;;5034989;28;20524;-80
2021/12/02 04:02:50;;;;;;;1.20;0.50;;;;;;;;;;5033004;28;20416;-80
2021/12/02 04:05:17;;;;;;;0.90;0.50;;;;;;;;;;5034387;28;20484;-80
2021/12/02 04:07:43;;;;;;;0.90;0.50;;;;;;;;;;5034397;28;20433;-80
2021/12/02 04:10:09;;;;;;;0.90;0.60;;;;;;;;;;5031921;28;20480;-80
2021/12/02 04:15:11;;;;;;;1.10;0.50;;;;;;;;;;5069472;28;20474;-74
2021/12/02 04:17:41;;;;;;;1.00;0.60;;;;;;;;;;5073046;28;20399;-74
2021/12/02 04:20:12;;;;;;;0.90;0.43;;;;;;;;;;5072274;28;20402;-74
2021/12/02 04:22:38;;;;;;;1.20;0.50;;;;;;;;;;5072630;28;20460;-74
2021/12/02 04:25:05;;;;;;;0.90;0.50;;;;;;;;;;5072422;28;20398;-74
2021/12/02 04:27:31;;;;;;;1.00;0.60;;;;;;;;;;5054666;28;20403;-74
2021/12/02 04:29:57;;;;;;;0.90;0.50;;;;;;;;;;5071938;28;20528;-74
2021/12/02 04:32:23;;;;;;;0.90;0.50;;;;;;;;;;5072307;28;20403;-74
2021/12/02 04:34:49;;;;;;;0.90;0.50;;;;;;;;;;5072023;28;20415;-74
2021/12/02 04:37:15;;;;;;;0.90;0.40;;;;;;;;;;5072278;28;20395;-74
2021/12/02 04:39:41;;;;;;;0.93;0.50;;;;;;;;;;5053816;28;20470;-74
2021/12/02 04:42:07;;;;;;;0.90;0.60;;;;;;;;;;5072248;28;20406;-74
2021/12/02 04:44:33;;;;;;;0.90;0.50;;;;;;;;;;5071929;28;20910;-74
2021/12/02 04:46:59;;;;;;;0.90;0.40;;;;;;;;;;5054186;28;20475;-74
2021/12/02 04:49:25;;;;;;;0.90;0.40;;;;;;;;;;5071658;28;20454;-74
2021/12/02 04:51:51;;;;;;;1.03;0.57;;;;;;;;;;5054075;28;20472;-74
2021/12/02 04:54:17;;;;;;;1.00;0.60;;;;;;;;;;5071799;28;20907;-74
2021/12/02 04:56:43;;;;;;;1.00;0.50;;;;;;;;;;5071873;28;20910;-74
2021/12/02 04:59:09;;;;;;;0.90;0.50;;;;;;;;;;5071531;28;20410;-74
2021/12/02 05:01:35;;;;;;;0.90;0.50;;;;;;;;;;5071890;28;20460;-74
2021/12/02 05:04:01;;;;;;;0.90;0.60;;;;;;;;;;5071614;28;20477;-74
2021/12/02 05:06:27;;;;;;;1.10;0.50;;;;;;;;;;5071738;28;20421;-74
2021/12/02 05:08:53;;;;;;;1.10;0.50;;;;;;;;;;5071254;28;20833;-74
2021/12/02 05:11:19;;;;;;;0.90;0.50;;;;;;;;;;5053803;28;20415;-74
2021/12/02 05:13:45;;;;;;;1.00;0.50;;;;;;;;;;5071414;28;20434;-74
2021/12/02 05:16:11;;;;;;;0.90;0.50;;;;;;;;;;5071599;28;20870;-74
2021/12/02 05:18:39;;;;;;;0.90;0.50;;;;;;;;;;5053726;28;20849;-74
2021/12/02 05:21:05;;;;;;;0.90;0.50;;;;;;;;;;5071141;28;20817;-74
2021/12/02 05:23:31;;;;;;;0.90;0.50;;;;;;;;;;5053574;28;20984;-74
2021/12/02 05:25:57;;;;;;;0.90;0.50;;;;;;;;;;5071337;28;21307;-74
2021/12/02 05:28:23;;;;;;;1.40;0.60;;;;;;;;;;5070987;28;20454;-74
2021/12/02 05:30:49;;;;;;;0.90;0.50;;;;;;;;;;5071032;28;20398;-74
2021/12/02 05:33:15;;;;;;;0.90;0.50;;;;;;;;;;5071383;28;20442;-74
2021/12/02 05:35:41;;;;;;;2.07;0.50;;;;;;;;;;5053193;28;20418;-74
2021/12/02 05:38:08;;;;;;;2.30;0.50;;;;;;;;;;5071303;28;20399;-74
2021/12/02 05:40:34;;;;;;;0.90;0.50;;;;;;;;;;5071347;28;20411;-73
2021/12/02 05:43:00;;;;;;;0.90;0.50;;;;;;;;;;5071237;28;20426;-74
2021/12/02 05:45:26;;;;;;;1.73;0.60;;;;;;;;;;5071103;28;20407;-74
2021/12/02 05:47:52;;;;;;;3.40;0.90;;;;;;;;;;5071284;28;20406;-74
2021/12/02 05:50:18;;;;;;;1.83;0.70;;;;;;;;;;5070616;28;20419;-74
2021/12/02 05:52:44;;;;;;;4.50;0.67;;;;;;;;;;5071090;28;20774;-74
2021/12/02 05:55:10;;;;;;;1.60;0.80;;;;;;;;;;5071159;28;20414;-74
2021/12/02 05:57:36;;;;;;;1.63;0.80;;;;;;;;;;5070476;28;20426;-73
2021/12/02 06:00:03;;;;;;;1.60;0.70;;;;;;;;;;5069919;28;20419;-73
2021/12/02 06:02:29;;;;;;;1.37;0.70;;;;;;;;;;5069755;28;20422;-73
2021/12/02 06:04:55;;;;;;;1.20;0.70;;;;;;;;;;5070868;28;20418;-73
2021/12/02 06:07:21;;;;;;;3.07;0.90;;;;;;;;;;5070637;28;20418;-73
2021/12/02 06:09:48;;;;;;;2.70;0.73;;;;;;;;;;5069082;28;20462;-73
2021/12/02 06:12:14;;;;;;;3.60;0.80;;;;;;;;;;5071084;28;20900;-73
2021/12/02 06:14:40;;;;;;;2.63;0.70;;;;;;;;;;5069765;28;20486;-73
2021/12/02 06:17:06;;;;;;;5.83;1.13;;;;;;;;;;5070140;28;20497;-74
2021/12/02 06:19:32;;;;;;;1.37;0.90;;;;;;;;;;5070488;28;20417;-74
2021/12/02 06:21:58;;;;;;;5.50;1.10;;;;;;;;;;5052881;28;20415;-74
2021/12/02 06:24:30;;;;;;;2.37;0.90;;;;;;;;;;5070216;28;20457;-74
2021/12/02 06:26:56;;;;;;;2.00;0.60;;;;;;;;;;5070817;28;20414;-74
2021/12/02 06:29:22;;;;;;;1.70;0.80;;;;;;;;;;5069744;28;20458;-74
2021/12/02 06:31:48;;;;;;;3.33;1.30;;;;;;;;;;5069853;28;20924;-74
2021/12/02 06:34:14;;;;;;;1.07;0.60;;;;;;;;;;5070023;28;20434;-74
2021/12/02 06:36:40;;;;;;;2.07;1.07;;;;;;;;;;5070592;28;20394;-74
2021/12/02 06:39:07;;;;;;;1.60;0.80;;;;;;;;;;5071666;28;20639;-74
2021/12/02 06:41:33;;;;;;;1.93;1.00;;;;;;;;;;5074372;28;20881;-74
2021/12/02 06:44:00;;;;;;;1.30;0.70;;;;;;;;;;5074302;28;20981;-74
2021/12/02 06:46:28;;;;;;;1.87;1.17;;;;;;;;;;5074361;28;20460;-74
2021/12/02 06:48:54;;;;;;;2.30;0.70;;;;;;;;;;5056062;28;20618;-74
2021/12/02 06:51:21;;;;;;;1.20;0.73;;;;;;;;;;5074173;28;20399;-74
2021/12/02 06:53:49;;;;;;;1.60;0.90;;;;;;;;;;5056182;28;20943;-74
2021/12/02 06:56:15;;;;;;;1.40;0.70;;;;;;;;;;5074240;28;20493;-74
2021/12/02 06:58:41;;;;;;;4.63;1.10;;;;;;;;;;5074203;28;20406;-74
2021/12/02 07:01:07;;;;;;;1.67;0.80;;;;;;;;;;5073679;28;20488;-74
2021/12/02 07:03:33;;;;;;;1.67;0.70;;;;;;;;;;5074065;28;20427;-74
2021/12/02 07:05:59;;;;;;;21.73;1.13;;;;;;;;;;5073812;28;20465;-73
2021/12/02 07:08:25;;;;;;;1.00;0.60;;;;;;;;;;5074002;28;20445;-74
2021/12/02 07:10:51;;;;;;;1.20;0.80;;;;;;;;;;5073676;28;20402;-74
2021/12/02 07:13:17;;;;;;;1.63;0.67;;;;;;;;;;5073853;28;20442;-74
2021/12/02 07:15:51;;;;;;;0.97;0.60;;;;;;;;;;5055828;28;20415;-74
2021/12/02 07:18:18;;;;;;;1.67;0.70;;;;;;;;;;5074023;28;20403;-74
2021/12/02 07:20:46;;;;;;;1.83;0.90;;;;;;;;;;5073396;28;20878;-74
2021/12/02 07:23:13;;;;;;;1.40;0.60;;;;;;;;;;5073798;28;20794;-74
2021/12/02 07:25:40;;;;;;;2.83;0.90;;;;;;;;;;5073595;28;20402;-74
2021/12/02 07:28:06;;;;;;;2.73;1.33;;;;;;;;;;5073593;28;20818;-74
2021/12/02 07:30:33;;;;;;;1.10;0.67;;;;;;;;;;5073358;28;20403;-75
2021/12/02 07:33:00;;;;;;;1.60;0.87;;;;;;;;;;5073554;28;20932;-74
2021/12/02 07:35:26;;;;;;;1.77;0.90;;;;;;;;;;5073442;28;20408;-74
2021/12/02 07:37:57;;;;;;;1.30;0.77;;;;;;;;;;5073558;28;20399;-74
2021/12/02 07:40:23;;;;;;;1.73;0.70;;;;;;;;;;5073103;28;20467;-74
2021/12/02 07:42:54;;;;;;;2.03;1.00;;;;;;;;;;5073305;28;20433;-74
2021/12/02 07:45:23;;;;;;;4.60;0.80;;;;;;;;;;5073419;28;20917;-75
2021/12/02 07:47:49;;;;;;;1.57;0.80;;;;;;;;;;5073273;28;20545;-75
2021/12/02 07:50:16;;;;;;;8.30;1.03;;;;;;;;;;5071837;28;20520;-75
2021/12/02 07:52:51;;;;;;;3.40;1.10;;;;;;;;;;5073021;28;20434;-75
2021/12/02 07:55:18;;;;;;;4.17;1.00;;;;;;;;;;5073094;28;20808;-75
2021/12/02 07:57:44;;;;;;;2.20;1.27;;;;;;;;;;5073175;28;20406;-74
2021/12/02 08:00:11;;;;;;;5.80;1.03;;;;;;;;;;5072700;28;20401;-75
2021/12/02 08:02:38;;;;;;;1.97;1.10;;;;;;;;;;5072858;28;20894;-75
2021/12/02 08:05:05;;;;;;;1.53;0.93;;;;;;;;;;5072919;28;20399;-74
2021/12/02 08:07:33;;;;;;;2.60;1.00;;;;;;;;;;5072914;28;20407;-75
2021/12/02 08:10:01;;;;;;;1.57;0.80;;;;;;;;;;5072472;28;20583;-75
2021/12/02 08:12:27;;;;;;;6.50;1.10;;;;;;;;;;5072807;28;20510;-75
2021/12/02 08:14:53;;;;;;;2.50;1.10;;;;;;;;;;5072543;28;20984;-75
2021/12/02 08:17:19;;;;;;;3.17;1.17;;;;;;;;;;5070018;28;20441;-74
2021/12/02 08:19:45;;;;;;;5.60;1.03;;;;;;;;;;5054135;28;20434;-74
2021/12/02 08:22:11;;;;;;;1.60;0.60;;;;;;;;;;5072029;28;20752;-74
2021/12/02 08:24:37;;;;;;;3.03;1.00;;;;;;;;;;5072123;28;20790;-74
2021/12/02 08:27:03;;;;;;;1.87;1.07;;;;;;;;;;5072192;28;20446;-74
2021/12/02 08:29:29;;;;;;;1.67;0.73;;;;;;;;;;5053944;28;20976;-74
2021/12/02 08:31:56;;;;;;;1.20;0.60;;;;;;;;;;5072042;28;20464;-74
2021/12/02 08:34:22;;;;;;;1.13;0.63;;;;;;;;;;5071942;28;20421;-74
2021/12/02 08:36:54;;;;;;;0.90;0.60;;;;;;;;;;5071952;28;20391;-74
2021/12/02 08:39:26;;;;;;;1.23;0.60;;;;;;;;;;5071731;28;20438;-74
2021/12/02 08:41:54;;;;;;;1.10;0.60;;;;;;;;;;5071967;28;20572;-74
2021/12/02 08:44:21;;;;;;;2.07;0.80;;;;;;;;;;5072168;28;20464;-74
2021/12/02 08:46:48;;;;;;;1.47;0.80;;;;;;;;;;5071614;28;20476;-74
2021/12/02 08:49:14;;;;;;;1.53;0.90;;;;;;;;;;5072263;28;20524;-74
2021/12/02 08:51:41;;;;;;;1.60;0.80;;;;;;;;;;5072412;28;20472;-74
2021/12/02 08:54:07;;;;;;;2.63;0.80;;;;;;;;;;5053980;28;20794;-74
2021/12/02 08:56:33;;;;;;;0.90;0.50;;;;;;;;;;5071815;28;20770;-74
2021/12/02 08:58:59;;;;;;;1.00;0.50;;;;;;;;;;5053132;28;20513;-74
2021/12/02 09:01:28;;;;;;;1.97;0.60;;;;;;;;;;5052926;28;20967;-74
2021/12/02 09:03:54;;;;;;;1.07;0.60;;;;;;;;;;5071286;28;20430;-74
2021/12/02 09:06:22;;;;;;;2.43;0.90;;;;;;;;;;5071478;28;20418;-74
2021/12/02 09:08:48;;;;;;;1.20;0.60;;;;;;;;;;5071066;28;20446;-74
2021/12/02 09:11:14;;;;;;;1.73;0.70;;;;;;;;;;5071135;28;20809;-74
2021/12/02 09:13:41;;;;;;;4.80;0.70;;;;;;;;;;5071396;28;20442;-74
2021/12/02 09:16:07;;;;;;;1.20;0.60;;;;;;;;;;5071248;28;20410;-74
2021/12/02 09:18:33;;;;;;;1.87;0.70;;;;;;;;;;5071451;28;20407;-74
2021/12/02 09:20:59;;;;;;;1.30;0.60;;;;;;;;;;5071086;28;20408;-74
2021/12/02 09:23:26;;;;;;;1.00;0.60;;;;;;;;;;5070820;28;20426;-74
2021/12/02 09:25:53;;;;;;;1.00;0.53;;;;;;;;;;5071261;28;20403;-74
2021/12/02 09:28:19;;;;;;;1.43;0.57;;;;;;;;;;5071101;28;20967;-73
2021/12/02 09:30:46;;;;;;;5.93;1.53;;;;;;;;;;5070845;28;20399;-74
2021/12/02 09:33:12;;;;;;;0.90;0.50;;;;;;;;;;5070914;28;20435;-75
2021/12/02 09:35:38;;;;;;;1.60;0.70;;;;;;;;;;5070838;28;20552;-74
2021/12/02 09:38:08;;;;;;;5.97;0.60;;;;;;;;;;5070999;28;20407;-74
2021/12/02 09:40:35;;;;;;;0.90;0.50;;;;;;;;;;5070977;28;20395;-74
2021/12/02 09:43:02;;;;;;;0.90;0.50;;;;;;;;;;5070902;28;20433;-74
2021/12/02 09:45:28;;;;;;;0.90;0.50;;;;;;;;;;5070822;28;20402;-75
2021/12/02 09:47:54;;;;;;;0.90;0.40;;;;;;;;;;5070682;28;20535;-74
2021/12/02 09:50:25;;;;;;;1.40;0.60;;;;;;;;;;5070559;28;20507;-74
2021/12/02 09:52:51;;;;;;;2.50;0.70;;;;;;;;;;5070931;28;20413;-74
2021/12/02 09:57:55;;;;;;;0.90;0.40;;;;;;;;;;5070971;28;20399;-74
2021/12/02 10:00:28;;;;;;;1.13;0.70;;;;;;;;;;5052237;28;20468;-74
2021/12/02 10:03:05;;;;;;;0.90;0.50;;;;;;;;;;5070416;28;20422;-74
2021/12/02 10:05:42;;;;;;;1.33;0.50;;;;;;;;;;5070554;28;20417;-74
2021/12/02 10:08:16;;;;;;;0.90;0.50;;;;;;;;;;5068215;28;20403;-75
2021/12/02 10:10:52;;;;;;;2.63;0.57;;;;;;;;;;5050524;28;20406;-74
2021/12/02 10:13:28;;;;;;;0.90;0.43;;;;;;;;;;5051974;28;20431;-74
2021/12/02 10:16:03;;;;;;;0.90;0.50;;;;;;;;;;5054807;28;20395;-74
2021/12/02 10:18:38;;;;;;;1.00;0.50;;;;;;;;;;5054645;28;20494;-74
2021/12/02 10:21:24;;;;;;;0.90;0.60;;;;;;;;;;5054424;28;20427;-74
2021/12/02 10:23:52;;;;;;;0.90;0.50;;;;;;;;;;5054432;28;20484;-74
2021/12/02 10:26:19;;;;;;;0.90;0.50;;;;;;;;;;5054708;28;20406;-74
2021/12/02 10:28:45;;;;;;;1.00;0.47;;;;;;;;;;5054103;28;20466;-74
2021/12/02 10:31:11;;;;;;;1.00;0.60;;;;;;;;;;5054442;28;20465;-74
2021/12/02 10:33:49;;;;;;;1.00;0.50;;;;;;;;;;5054354;28;20427;-74
2021/12/02 10:36:28;;;;;;;1.00;0.50;;;;;;;;;;5052832;28;20418;-74
2021/12/02 10:38:56;;;;;;;1.10;0.50;;;;;;;;;;5053936;28;20736;-74
2021/12/02 10:41:24;;;;;;;1.10;0.70;;;;;;;;;;5052937;28;20918;-74
2021/12/02 10:44:02;;;;;;;1.10;0.50;;;;;;;;;;5054002;28;20419;-74
2021/12/02 10:46:28;;;;;;;0.90;0.50;;;;;;;;;;5054249;28;20843;-74
2021/12/02 10:48:54;;;;;;;1.10;0.50;;;;;;;;;;5052156;28;20550;-74
2021/12/02 10:51:39;;;;;;;1.00;0.60;;;;;;;;;;5054107;28;20403;-74
2021/12/02 10:54:08;;;;;;;0.90;0.50;;;;;;;;;;5052720;28;20435;-74
2021/12/02 10:56:35;;;;;;;0.90;0.50;;;;;;;;;;5054195;28;20415;-74
2021/12/02 10:59:20;;;;;;;0.90;0.50;;;;;;;;;;5053691;28;20465;-74
2021/12/02 11:01:46;;;;;;;0.90;0.40;;;;;;;;;;5053981;28;20396;-74
2021/12/02 11:04:13;;;;;;;0.90;0.50;;;;;;;;;;5052768;28;20439;-74
2021/12/02 11:06:43;;;;;;;1.77;0.60;;;;;;;;;;5052874;28;20408;-74
2021/12/02 11:09:25;;;;;;;1.10;0.60;;;;;;;;;;5053741;28;20501;-74
2021/12/02 11:12:10;;;;;;;1.00;0.50;;;;;;;;;;5053924;28;20408;-74
2021/12/02 11:14:37;;;;;;;0.90;0.50;;;;;;;;;;5053759;28;20435;-73
2021/12/02 11:17:06;;;;;;;0.90;0.50;;;;;;;;;;5053894;28;20431;-74
2021/12/02 11:19:33;;;;;;;0.90;0.50;;;;;;;;;;5053714;28;20400;-75
2021/12/02 11:22:06;;;;;;;0.90;0.50;;;;;;;;;;5097518;22;20399;-79
2021/12/02 11:24:36;;;;;;;0.90;0.50;;;;;;;;;;5093186;28;20509;-80
2021/12/02 11:27:22;;;;;;;0.90;0.50;;;;;;;;;;5098857;28;20911;-80
2021/12/02 11:29:59;;;;;;;0.90;0.50;;;;;;;;;;5098534;28;20785;-79
2021/12/02 11:32:34;;;;;;;0.90;0.40;;;;;;;;;;5097146;28;20433;-79
2021/12/02 11:35:18;;;;;;;0.90;0.50;;;;;;;;;;5099127;28;20423;-80
2021/12/02 11:37:46;;;;;;;0.90;0.50;;;;;;;;;;5096823;28;20402;-79
2021/12/02 11:40:14;;;;;;;0.90;0.50;;;;;;;;;;5098880;28;20899;-79
2021/12/02 11:42:40;;;;;;;1.03;0.57;;;;;;;;;;5098703;28;21007;-80
2021/12/02 11:45:08;;;;;;;1.00;0.50;;;;;;;;;;5097145;28;20418;-80
2021/12/02 11:47:35;;;;;;;1.77;0.67;;;;;;;;;;5097072;28;20417;-79
2021/12/02 11:50:01;;;;;;;1.30;0.67;;;;;;;;;;5096428;28;20466;-80
2021/12/02 11:52:27;;;;;;;0.90;0.50;;;;;;;;;;5096592;28;20944;-80
2021/12/02 11:54:56;;;;;;;1.37;0.60;;;;;;;;;;5096621;28;20406;-79
2021/12/02 11:57:23;;;;;;;1.30;0.83;;;;;;;;;;5097993;28;20409;-80
2021/12/02 11:59:49;;;;;;;0.90;0.50;;;;;;;;;;5098143;28;20493;-80
2021/12/02 12:02:18;;;;;;;1.10;0.60;;;;;;;;;;5096795;28;20430;-80
2021/12/02 12:04:56;;;;;;;0.90;0.60;;;;;;;;;;5095530;28;20471;-80
2021/12/02 12:07:22;;;;;;;0.90;0.50;;;;;;;;;;5097271;28;20402;-80
2021/12/02 12:09:49;;;;;;;0.90;0.50;;;;;;;;;;5095897;28;20446;-80
2021/12/02 12:12:15;;;;;;;0.90;0.60;;;;;;;;;;5097208;28;20476;-80
2021/12/02 12:14:42;;;;;;;0.90;0.50;;;;;;;;;;5095239;28;20414;-80
2021/12/02 12:17:12;;;;;;;0.90;0.50;;;;;;;;;;5097455;28;20455;-80
2021/12/02 12:19:40;;;;;;;1.00;0.50;;;;;;;;;;5094894;28;20448;-80
2021/12/02 12:22:08;;;;;;;0.90;0.50;;;;;;;;;;5097056;28;20915;-79
2021/12/02 12:24:40;;;;;;;1.03;0.60;;;;;;;;;;5095819;28;20414;-80
2021/12/02 12:27:19;;;;;;;0.90;0.40;;;;;;;;;;5095041;28;20464;-80
2021/12/02 12:29:47;;;;;;;0.90;0.50;;;;;;;;;;5095688;28;20540;-79
2021/12/02 12:32:47;;;;;;;1.67;0.50;;;;;;;;;;5096120;28;20461;-80
2021/12/02 12:35:24;;;;;;;1.37;0.60;;;;;;;;;;5097196;28;20418;-79
2021/12/02 12:37:52;;;;;;;0.90;0.50;;;;;;;;;;5097640;28;20413;-80
2021/12/02 12:40:20;;;;;;;1.07;0.50;;;;;;;;;;5096224;28;21072;-80
2021/12/02 12:42:51;;;;;;;0.90;0.50;;;;;;;;;;5095799;28;20440;-80
2021/12/02 12:45:33;;;;;;;1.10;0.53;;;;;;;;;;5097454;28;20417;-80
2021/12/02 12:48:00;;;;;;;0.90;0.40;;;;;;;;;;5096787;28;20405;-80
2021/12/02 12:50:26;;;;;;;1.00;0.50;;;;;;;;;;5095732;28;20445;-80
2021/12/02 12:52:54;;;;;;;0.97;0.53;;;;;;;;;;5095586;28;20513;-80
2021/12/02 12:55:21;;;;;;;0.90;0.50;;;;;;;;;;5096694;28;20455;-80
2021/12/02 12:58:06;;;;;;;1.00;0.50;;;;;;;;;;5095244;28;20449;-80
2021/12/02 13:00:36;;;;;;;0.90;0.50;;;;;;;;;;5095861;28;20406;-80
2021/12/02 13:03:11;;;;;;;0.90;0.40;;;;;;;;;;5096597;28;20508;-80
2021/12/02 13:06:01;;;;;;;1.00;0.60;;;;;;;;;;5097185;28;20394;-80
2021/12/02 13:08:31;;;;;;;0.90;0.50;;;;;;;;;;5093784;28;20404;-80
2021/12/02 13:10:57;;;;;;;0.90;0.50;;;;;;;;;;5093148;28;20433;-80
2021/12/02 13:13:27;;;;;;;1.10;0.50;;;;;;;;;;5095272;28;20437;-80
2021/12/02 13:15:54;;;;;;;0.93;0.60;;;;;;;;;;5096546;28;20407;-80
2021/12/02 13:18:31;;;;;;;1.50;0.50;;;;;;;;;;5094647;28;20780;-80
2021/12/02 13:20:57;;;;;;;1.20;0.50;;;;;;;;;;5095037;28;20489;-81
2021/12/02 13:23:25;;;;;;;1.10;0.60;;;;;;;;;;5095699;28;20437;-80
2021/12/02 13:25:57;;;;;;;1.00;0.50;;;;;;;;;;5095402;28;20461;-80
2021/12/02 13:28:31;;;;;;;0.90;0.50;;;;;;;;;;5094049;28;20413;-80
2021/12/02 13:30:59;;;;;;;1.27;0.70;;;;;;;;;;5093354;28;20418;-80
2021/12/02 13:33:33;;;;;;;1.40;0.73;;;;;;;;;;5096676;28;20421;-80
2021/12/02 13:35:59;;;;;;;2.90;1.20;;;;;;;;;;5097229;28;20406;-80
2021/12/02 13:38:25;;;;;;;4.77;2.10;;;;;;;;;;5095455;28;20417;-79
2021/12/02 13:40:51;;;;;;;6.90;2.33;;;;;;;;;;5105819;28;20461;-81
2021/12/02 13:43:18;;;;;;;10.20;2.83;;;;;;;;;;5115143;28;20445;-79
2021/12/02 13:45:44;;;;;;;8.73;3.07;;;;;;;;;;5114795;28;20411;-82
2021/12/02 13:48:16;;;;;;;8.60;4.00;;;;;;;;;;5112692;28;20405;-83
2021/12/02 13:50:46;;;;;;;11.80;4.43;;;;;;;;;;5113909;28;20408;-83
2021/12/02 13:53:13;;;;;;;10.77;4.93;;;;;;;;;;5113221;28;20516;-84
2021/12/02 13:55:41;;;;;;;15.27;5.37;;;;;;;;;;5119197;28;20400;-79
2021/12/02 14:00:44;;;;;;;10.50;4.93;;;;;;;;;;5133568;28;20405;-78
2021/12/02 14:03:12;;;;;;;8.70;4.70;;;;;;;;;;5117184;28;20457;-79
2021/12/02 14:05:48;;;;;;;16.63;6.70;;;;;;;;;;5113026;28;20413;-79
2021/12/02 14:08:15;;;;;;;10.40;4.83;;;;;;;;;;5115054;28;20447;-79
2021/12/02 14:10:42;;;;;;;19.77;6.67;;;;;;;;;;5116295;28;20424;-79
2021/12/02 14:13:11;;;;;;;17.57;8.33;;;;;;;;;;5120387;28;20474;-78
2021/12/02 14:15:39;;;;;;;51.00;20.90;;;;;;;;;;5133613;28;20415;-80
2021/12/02 14:18:05;;;;;;;29.17;11.33;;;;;;;;;;5132750;28;20405;-79
2021/12/02 14:20:49;;;;;;;23.13;8.97;;;;;;;;;;5131888;28;20435;-79
2021/12/02 14:23:18;;;;;;;26.80;12.37;;;;;;;;;;5116081;28;20448;-79
2021/12/02 14:25:47;;;;;;;29.53;11.10;;;;;;;;;;5112302;28;20762;-79
2021/12/02 14:28:16;;;;;;;24.07;10.87;;;;;;;;;;5116120;28;20397;-85
2021/12/02 14:30:44;;;;;;;22.80;9.10;;;;;;;;;;5113607;28;20425;-85
2021/12/02 14:33:11;;;;;;;25.20;9.80;;;;;;;;;;5113833;28;20428;-86
2021/12/02 14:35:57;;;;;;;26.00;10.97;;;;;;;;;;5114649;28;20401;-80
2021/12/02 14:38:27;;;;;;;19.67;8.20;;;;;;;;;;5115803;28;20405;-80
2021/12/02 14:40:58;;;;;;;20.80;9.40;;;;;;;;;;5113242;28;20984;-79
2021/12/02 14:43:26;;;;;;;20.40;7.53;;;;;;;;;;5116162;28;20425;-81
2021/12/02 14:46:10;;;;;;;34.20;11.50;;;;;;;;;;5116804;28;20405;-80
2021/12/02 14:48:36;;;;;;;16.40;7.23;;;;;;;;;;5116332;28;20432;-80
2021/12/02 14:51:08;;;;;;;15.30;6.33;;;;;;;;;;5116322;28;20401;-79
2021/12/02 14:53:54;;;;;;;28.33;13.47;;;;;;;;;;5116166;28;20421;-81
2021/12/02 14:56:25;;;;;;;27.97;8.30;;;;;;;;;;5117493;28;20400;-81
2021/12/02 14:59:10;;;;;;;23.13;6.97;;;;;;;;;;5114507;28;20497;-81
2021/12/02 15:01:56;;;;;;;15.43;7.53;;;;;;;;;;5116336;28;20494;-81
2021/12/02 15:04:26;;;;;;;58.73;12.67;;;;;;;;;;5110157;28;20415;-81